createdAt,value
2019-01-15T00:01:21.659Z,101118.99
2019-01-15T00:03:49.856Z,101121.20
2019-01-15T00:06:18.062Z,101122.59
2019-01-15T00:08:46.281Z,101119.31
2019-01-15T00:11:14.462Z,101120.92
2019-01-15T00:13:42.652Z,101126.93
2019-01-15T00:16:10.849Z,101126.39
2019-01-15T00:18:39.044Z,101121.45
2019-01-15T00:21:07.255Z,101121.45
2019-01-15T00:23:54.810Z,101127.73
2019-01-15T00:26:23.000Z,101124.70
2019-01-15T00:28:51.196Z,101126.84
2019-01-15T00:31:38.497Z,101129.03
2019-01-15T00:34:06.705Z,101120.55
2019-01-15T00:36:34.892Z,101122.25
2019-01-15T00:41:42.492Z,101131.56
2019-01-15T00:44:10.709Z,101131.34
2019-01-15T00:46:38.902Z,101129.42
2019-01-15T00:49:07.082Z,101131.32
2019-01-15T00:51:35.279Z,101128.80
2019-01-15T00:54:03.464Z,101128.80
2019-01-15T00:56:31.656Z,101133.73
2019-01-15T00:59:18.956Z,101136.48
2019-01-15T01:04:27.545Z,101131.32
2019-01-15T01:06:55.752Z,101134.06
2019-01-15T01:09:23.944Z,101143.65
2019-01-15T01:11:52.146Z,101139.02
2019-01-15T01:14:20.346Z,101136.52
2019-01-15T01:16:48.561Z,101140.38
2019-01-15T01:19:16.745Z,101142.83
2019-01-15T01:21:44.947Z,101134.91
2019-01-15T01:24:13.127Z,101132.95
2019-01-15T01:26:41.317Z,101129.13
2019-01-15T01:29:09.505Z,101131.04
2019-01-15T01:32:17.841Z,101137.11
2019-01-15T01:34:46.024Z,101137.66
2019-01-15T01:37:14.244Z,101124.27
2019-01-15T01:39:42.401Z,101131.66
2019-01-15T01:42:10.618Z,101127.80
2019-01-15T01:44:38.805Z,101123.66
2019-01-15T01:47:07.003Z,101119.78
2019-01-15T01:49:35.195Z,101125.52
2019-01-15T01:54:37.137Z,101128.51
2019-01-15T01:57:05.334Z,101117.00
2019-01-15T01:59:33.517Z,101112.91
2019-01-15T02:02:01.711Z,101113.52
2019-01-15T02:04:29.899Z,101114.08
2019-01-15T02:06:58.101Z,101108.35
2019-01-15T02:09:26.289Z,101108.37
2019-01-15T02:11:54.515Z,101105.11
2019-01-15T02:14:22.691Z,101103.76
2019-01-15T02:16:50.872Z,101106.80
2019-01-15T02:19:19.068Z,101105.72
2019-01-15T02:21:47.250Z,101106.04
2019-01-15T02:26:51.584Z,101106.28
2019-01-15T02:29:20.888Z,101109.34
2019-01-15T02:31:49.079Z,101099.21
2019-01-15T02:34:17.279Z,101095.65
2019-01-15T02:36:45.462Z,101092.93
2019-01-15T02:39:13.658Z,101093.50
2019-01-15T02:41:41.842Z,101093.77
2019-01-15T02:44:10.042Z,101089.71
2019-01-15T02:46:38.235Z,101093.56
2019-01-15T02:49:06.430Z,101095.23
2019-01-15T02:51:34.621Z,101089.45
2019-01-15T02:54:02.824Z,101091.63
2019-01-15T02:56:31.011Z,101085.85
2019-01-15T02:58:59.216Z,101083.66
2019-01-15T03:01:27.398Z,101084.80
2019-01-15T03:04:14.959Z,101090.55
2019-01-15T03:06:43.141Z,101082.81
2019-01-15T03:09:11.345Z,101090.48
2019-01-15T03:11:39.522Z,101092.68
2019-01-15T03:14:07.717Z,101087.45
2019-01-15T03:16:35.903Z,101098.39
2019-01-15T03:19:04.104Z,101086.34
2019-01-15T03:21:32.297Z,101078.44
2019-01-15T03:24:00.502Z,101087.20
2019-01-15T03:29:42.498Z,101095.97
2019-01-15T03:32:10.685Z,101098.70
2019-01-15T03:34:38.890Z,101086.97
2019-01-15T03:37:26.188Z,101081.22
2019-01-15T03:39:54.382Z,101076.34
2019-01-15T03:45:09.817Z,101053.92
2019-01-15T03:47:38.002Z,101057.20
2019-01-15T03:50:46.332Z,101043.27
2019-01-15T03:53:14.509Z,101047.39
2019-01-15T03:55:42.701Z,101050.44
2019-01-15T03:58:10.889Z,101047.42
2019-01-15T04:03:33.776Z,101038.67
2019-01-15T04:06:01.990Z,101043.09
2019-01-15T04:09:10.302Z,101028.34
2019-01-15T04:11:38.489Z,101033.81
2019-01-15T04:14:06.672Z,101039.06
2019-01-15T04:16:34.871Z,101024.33
2019-01-15T04:19:03.062Z,101023.75
2019-01-15T04:21:31.274Z,101013.63
2019-01-15T04:23:59.438Z,101015.53
2019-01-15T04:26:27.655Z,101004.88
2019-01-15T04:28:55.858Z,101015.58
2019-01-15T04:31:24.073Z,101010.36
2019-01-15T04:36:41.167Z,101010.36
2019-01-15T04:39:49.465Z,101007.08
2019-01-15T04:42:17.647Z,101004.06
2019-01-15T04:44:45.828Z,100993.64
2019-01-15T04:47:14.036Z,100994.98
2019-01-15T04:49:42.208Z,100987.58
2019-01-15T04:52:10.407Z,100979.84
2019-01-15T04:54:57.977Z,100991.05
2019-01-15T04:57:26.168Z,100989.63
2019-01-15T05:05:22.442Z,100973.18
2019-01-15T05:07:50.638Z,100973.78
2019-01-15T05:10:18.826Z,100965.56
2019-01-15T05:12:47.015Z,100975.39
2019-01-15T05:15:55.324Z,100965.81
2019-01-15T05:18:23.513Z,100972.36
2019-01-15T05:20:51.729Z,100975.94
2019-01-15T05:23:19.918Z,100966.13
2019-01-15T05:25:48.118Z,100968.95
2019-01-15T05:31:29.931Z,100965.41
2019-01-15T05:34:17.226Z,100955.30
2019-01-15T05:36:45.432Z,100964.91
2019-01-15T05:39:13.608Z,100957.27
2019-01-15T05:41:41.801Z,100952.91
2019-01-15T05:44:10.223Z,100947.73
2019-01-15T05:46:39.932Z,100956.78
2019-01-15T05:49:08.113Z,100955.42
2019-01-15T05:54:11.635Z,100964.26
2019-01-15T05:56:58.948Z,100963.44
2019-01-15T05:59:27.136Z,100957.97
2019-01-15T06:02:14.450Z,100953.84
2019-01-15T06:04:42.646Z,100951.92
2019-01-15T06:07:10.842Z,100950.83
2019-01-15T06:09:39.027Z,100953.56
2019-01-15T06:12:07.226Z,100948.09
2019-01-15T06:14:35.427Z,100945.63
2019-01-15T06:17:03.625Z,100951.63
2019-01-15T06:19:31.810Z,100930.28
2019-01-15T06:22:00.006Z,100937.65
2019-01-15T06:24:28.191Z,100942.28
2019-01-15T06:26:56.397Z,100941.20
2019-01-15T06:29:24.607Z,100930.78
2019-01-15T06:31:52.807Z,100932.16
2019-01-15T06:34:20.998Z,100922.30
2019-01-15T06:36:49.200Z,100923.95
2019-01-15T06:39:17.389Z,100928.82
2019-01-15T06:41:45.606Z,100924.99
2019-01-15T06:44:32.912Z,100930.69
2019-01-15T06:47:01.130Z,100932.04
2019-01-15T06:52:16.581Z,100934.73
2019-01-15T06:55:03.885Z,100931.39
2019-01-15T06:57:32.091Z,100932.19
2019-01-15T07:00:00.280Z,100938.41
2019-01-15T07:02:28.485Z,100930.12
2019-01-15T07:05:36.778Z,100940.50
2019-01-15T07:08:04.994Z,100932.53
2019-01-15T07:13:48.187Z,100928.63
2019-01-15T07:19:06.351Z,100934.81
2019-01-15T07:26:57.590Z,100945.05
2019-01-15T07:29:25.786Z,100944.17
2019-01-15T07:31:53.971Z,100934.26
2019-01-15T07:35:02.303Z,100935.57
2019-01-15T07:37:30.507Z,100933.05
2019-01-15T07:39:58.696Z,100936.28
2019-01-15T07:42:26.939Z,100941.18
2019-01-15T07:44:55.120Z,100940.33
2019-01-15T07:47:23.310Z,100938.63
2019-01-15T07:49:51.506Z,100945.17
2019-01-15T07:52:19.694Z,100942.67
2019-01-15T07:54:47.896Z,100942.34
2019-01-15T07:57:16.088Z,100931.09
2019-01-15T07:59:44.280Z,100941.20
2019-01-15T08:05:01.355Z,100943.09
2019-01-15T08:07:29.546Z,100943.61
2019-01-15T08:09:57.742Z,100938.06
2019-01-15T08:12:25.932Z,100944.89
2019-01-15T08:14:54.121Z,100945.67
2019-01-15T08:17:22.330Z,100942.63
2019-01-15T08:19:50.528Z,100949.11
2019-01-15T08:22:18.735Z,100933.11
2019-01-15T08:24:46.932Z,100933.86
2019-01-15T08:27:15.177Z,100944.73
2019-01-15T08:29:43.356Z,100936.16
2019-01-15T08:32:11.532Z,100932.83
2019-01-15T08:34:39.758Z,100939.08
2019-01-15T08:37:27.326Z,100931.87
2019-01-15T08:39:55.535Z,100935.09
2019-01-15T08:42:23.722Z,100927.84
2019-01-15T08:44:51.922Z,100931.34
2019-01-15T08:50:29.437Z,100922.41
2019-01-15T08:52:57.603Z,100930.02
2019-01-15T08:55:25.819Z,100922.29
2019-01-15T08:57:54.008Z,100916.22
2019-01-15T09:00:22.301Z,100929.35
2019-01-15T09:02:50.462Z,100917.23
2019-01-15T09:05:18.731Z,100918.88
2019-01-15T09:07:46.933Z,100911.16
2019-01-15T09:10:34.566Z,100908.92
2019-01-15T09:16:16.809Z,100915.59
2019-01-15T09:18:45.083Z,100911.75
2019-01-15T09:21:13.269Z,100910.89
2019-01-15T09:23:41.459Z,100912.48
2019-01-15T09:26:09.654Z,100910.53
2019-01-15T09:28:37.839Z,100902.80
2019-01-15T09:31:06.054Z,100901.44
2019-01-15T09:33:34.259Z,100905.52
2019-01-15T09:36:02.449Z,100902.01
2019-01-15T09:38:30.639Z,100901.91
2019-01-15T09:40:58.839Z,100904.63
2019-01-15T09:43:27.080Z,100902.94
2019-01-15T09:45:55.279Z,100906.50
2019-01-15T09:51:12.352Z,100898.86
2019-01-15T09:53:40.541Z,100893.88
2019-01-15T09:56:08.836Z,100895.52
2019-01-15T09:58:37.039Z,100889.16
2019-01-15T10:01:05.254Z,100893.88
2019-01-15T10:03:33.462Z,100894.45
2019-01-15T10:06:01.658Z,100889.47
2019-01-15T10:08:48.978Z,100880.91
2019-01-15T10:11:17.239Z,100882.83
2019-01-15T10:13:45.409Z,100882.23
2019-01-15T10:16:13.623Z,100873.67
2019-01-15T10:21:55.869Z,100869.23
2019-01-15T10:24:24.135Z,100857.64
2019-01-15T10:32:46.931Z,100848.39
2019-01-15T10:38:16.113Z,100832.09
2019-01-15T10:40:44.398Z,100830.72
2019-01-15T10:43:12.587Z,100835.02
2019-01-15T10:45:40.781Z,100830.84
2019-01-15T10:48:08.970Z,100825.03
2019-01-15T10:50:37.215Z,100824.43
2019-01-15T10:53:05.410Z,100808.99
2019-01-15T10:55:33.708Z,100811.24
2019-01-15T10:58:42.020Z,100800.25
2019-01-15T11:01:10.322Z,100792.82
2019-01-15T11:03:38.446Z,100796.63
2019-01-15T11:06:06.649Z,100777.94
2019-01-15T11:13:43.136Z,100772.16
2019-01-15T11:16:11.330Z,100769.14
2019-01-15T11:18:39.632Z,100768.32
2019-01-15T11:21:07.782Z,100768.27
2019-01-15T11:23:35.998Z,100765.14
2019-01-15T11:26:23.550Z,100756.28
2019-01-15T11:28:51.782Z,100750.47
2019-01-15T11:31:19.962Z,100740.52
2019-01-15T11:33:48.165Z,100738.27
2019-01-15T11:36:16.348Z,100741.78
2019-01-15T11:38:44.565Z,100739.77
2019-01-15T11:41:12.765Z,100734.27
2019-01-15T11:43:40.968Z,100735.09
2019-01-15T11:46:09.156Z,100720.28
2019-01-15T11:48:37.358Z,100722.22
2019-01-15T11:51:05.540Z,100728.83
2019-01-15T11:54:13.847Z,100714.47
2019-01-15T11:56:42.053Z,100716.39
2019-01-15T12:05:07.175Z,100702.59
2019-01-15T12:07:54.475Z,100694.02
2019-01-15T12:10:41.810Z,100692.64
2019-01-15T12:13:29.129Z,100698.70
2019-01-15T12:19:05.321Z,100694.08
2019-01-15T12:21:52.629Z,100700.89
2019-01-15T12:24:39.988Z,100691.27
2019-01-15T12:30:16.191Z,100687.08
2019-01-15T12:33:03.512Z,100693.63
2019-01-15T12:35:50.834Z,100697.76
2019-01-15T12:38:38.158Z,100689.19
2019-01-15T12:41:25.497Z,100670.70
2019-01-15T12:46:51.880Z,100668.44
2019-01-15T12:49:39.200Z,100660.75
2019-01-15T12:55:15.394Z,100650.63
2019-01-15T12:58:02.691Z,100647.55
2019-01-15T13:03:25.346Z,100652.66
2019-01-15T13:06:12.678Z,100655.67
2019-01-15T13:11:48.866Z,100648.73
2019-01-15T13:14:36.164Z,100660.30
2019-01-15T13:17:23.479Z,100658.10
2019-01-15T13:20:10.791Z,100661.67
2019-01-15T13:22:58.094Z,100654.47
2019-01-15T13:25:45.398Z,100665.14
2019-01-15T13:28:32.698Z,100663.53
2019-01-15T13:31:20.017Z,100657.97
2019-01-15T13:36:56.194Z,100654.53
2019-01-15T13:39:43.497Z,100653.09
2019-01-15T13:42:30.812Z,100650.19
2019-01-15T13:45:18.139Z,100648.58
2019-01-15T13:48:05.478Z,100645.17
2019-01-15T13:50:52.802Z,100640.98
2019-01-15T13:53:40.121Z,100630.23
2019-01-15T13:59:06.664Z,100632.31
2019-01-15T14:04:33.693Z,100626.71
2019-01-15T14:07:21.012Z,100638.06
2019-01-15T14:10:08.311Z,100635.47
2019-01-15T14:12:55.627Z,100627.52
2019-01-15T14:15:48.951Z,100632.05
2019-01-15T14:18:31.957Z,100625.56
2019-01-15T14:21:19.285Z,100628.32
2019-01-15T14:24:06.588Z,100627.57
2019-01-15T14:29:29.368Z,100623.02
2019-01-15T14:32:16.683Z,100625.77
2019-01-15T14:35:04.025Z,100618.11
2019-01-15T14:37:51.340Z,100617.29
2019-01-15T14:40:38.639Z,100614.53
2019-01-15T14:43:25.957Z,100612.67
2019-01-15T14:46:13.270Z,100621.48
2019-01-15T14:49:00.608Z,100615.42
2019-01-15T14:51:47.906Z,100613.23
2019-01-15T14:57:10.131Z,100602.55
2019-01-15T14:59:57.438Z,100595.12
2019-01-15T15:02:44.769Z,100606.35
2019-01-15T15:05:32.101Z,100603.60
2019-01-15T15:08:19.417Z,100599.24
2019-01-15T15:16:34.926Z,100600.62
2019-01-15T15:19:22.248Z,100600.30
2019-01-15T15:22:09.547Z,100600.84
2019-01-15T15:24:56.883Z,100596.80
2019-01-15T15:27:44.179Z,100600.13
2019-01-15T15:33:32.678Z,100599.87
2019-01-15T15:36:19.990Z,100592.99
2019-01-15T15:39:07.284Z,100604.26
2019-01-15T15:44:29.958Z,100601.50
2019-01-15T15:47:17.282Z,100598.17
2019-01-15T15:50:04.601Z,100597.61
2019-01-15T15:52:51.913Z,100605.30
2019-01-15T16:01:13.019Z,100595.91
2019-01-15T16:06:49.219Z,100607.89
2019-01-15T16:09:36.540Z,100606.35
2019-01-15T16:12:23.854Z,100609.52
2019-01-15T16:15:11.170Z,100608.08
2019-01-15T16:17:58.485Z,100603.84
2019-01-15T16:23:34.686Z,100597.88
2019-01-15T16:26:22.013Z,100608.81
2019-01-15T16:31:58.191Z,100599.41
2019-01-15T16:34:45.496Z,100599.34
2019-01-15T16:37:32.807Z,100599.00
2019-01-15T16:40:20.112Z,100601.20
2019-01-15T16:43:07.433Z,100598.38
2019-01-15T16:45:54.754Z,100598.05
2019-01-15T16:51:17.076Z,100611.66
2019-01-15T16:54:04.396Z,100597.56
2019-01-15T16:59:40.619Z,100610.19
2019-01-15T17:02:28.088Z,100607.20
2019-01-15T17:05:15.334Z,100606.64
2019-01-15T17:08:02.634Z,100619.82
2019-01-15T17:10:49.956Z,100617.06
2019-01-15T17:13:37.264Z,100613.91
2019-01-15T17:19:13.450Z,100618.71
2019-01-15T17:22:00.750Z,100617.82
2019-01-15T17:24:48.084Z,100614.41
2019-01-15T17:33:25.197Z,100616.60
2019-01-15T17:38:52.204Z,100622.44
2019-01-15T17:41:39.548Z,100621.85
2019-01-15T17:44:30.000Z,100628.66
2019-01-15T17:47:31.648Z,100634.98
2019-01-15T17:50:06.519Z,100617.42
2019-01-15T17:52:53.844Z,100634.02
2019-01-15T17:55:41.179Z,100637.81
2019-01-15T18:01:17.365Z,100626.24
2019-01-15T18:04:04.721Z,100636.59
2019-01-15T18:06:52.022Z,100632.56
2019-01-15T18:09:39.323Z,100640.34
2019-01-15T18:15:01.784Z,100623.23
2019-01-15T18:20:28.460Z,100632.72
2019-01-15T18:23:15.784Z,100629.08
2019-01-15T18:26:03.090Z,100631.34
2019-01-15T18:28:50.401Z,100632.72
2019-01-15T18:31:37.719Z,100631.83
2019-01-15T18:37:13.909Z,100639.76
2019-01-15T18:40:01.226Z,100641.80
2019-01-15T18:42:48.556Z,100636.85
2019-01-15T18:45:35.891Z,100637.67
2019-01-15T18:48:23.199Z,100642.44
2019-01-15T18:51:10.499Z,100650.06
2019-01-15T18:53:57.826Z,100640.91
2019-01-15T18:56:45.126Z,100640.91
2019-01-15T18:59:53.447Z,100643.17
2019-01-15T19:10:44.152Z,100643.86
2019-01-15T19:13:31.543Z,100638.53
2019-01-15T19:16:18.849Z,100634.73
2019-01-15T19:19:06.164Z,100633.36
2019-01-15T19:24:42.345Z,100632.62
2019-01-15T19:27:29.650Z,100634.73
2019-01-15T19:30:16.986Z,100633.10
2019-01-15T19:33:04.307Z,100637.01
2019-01-15T19:35:51.616Z,100636.67
2019-01-15T19:38:38.942Z,100637.56
2019-01-15T19:41:26.255Z,100639.02
2019-01-15T19:44:13.577Z,100648.10
2019-01-15T19:47:00.875Z,100642.52
2019-01-15T19:49:48.193Z,100648.25
2019-01-15T19:55:45.387Z,100652.72
2019-01-15T19:58:32.700Z,100650.52
2019-01-15T20:01:20.014Z,100654.09
2019-01-15T20:04:07.320Z,100648.92
2019-01-15T20:09:33.897Z,100651.03
2019-01-15T20:12:21.210Z,100647.28
2019-01-15T20:15:08.519Z,100648.36
2019-01-15T20:17:55.822Z,100648.10
2019-01-15T20:20:43.137Z,100647.28
2019-01-15T20:26:19.329Z,100653.94
2019-01-15T20:29:06.635Z,100657.11
2019-01-15T20:31:53.945Z,100657.66
2019-01-15T20:34:41.253Z,100658.08
2019-01-15T20:42:39.218Z,100651.41
2019-01-15T20:48:40.379Z,100658.23
2019-01-15T20:51:27.699Z,100665.38
2019-01-15T20:54:14.999Z,100658.78
2019-01-15T20:57:02.310Z,100661.31
2019-01-15T20:59:49.628Z,100659.94
2019-01-15T21:02:36.935Z,100662.92
2019-01-15T21:08:37.999Z,100662.36
2019-01-15T21:16:53.493Z,100678.06
2019-01-15T21:19:40.814Z,100679.04
2019-01-15T21:22:28.142Z,100676.13
2019-01-15T21:25:15.493Z,100685.55
2019-01-15T21:33:17.376Z,100682.71
2019-01-15T21:36:04.682Z,100692.58
2019-01-15T21:41:27.307Z,100683.27
2019-01-15T21:44:14.634Z,100674.75
2019-01-15T21:47:01.940Z,100682.45
2019-01-15T21:49:49.263Z,100680.52
2019-01-15T21:52:36.560Z,100667.30
2019-01-15T21:58:25.309Z,100668.20
2019-01-15T22:03:51.935Z,100663.92
2019-01-15T22:06:39.262Z,100661.16
2019-01-15T22:15:07.071Z,100665.45
2019-01-15T22:17:54.372Z,100666.56
2019-01-15T22:23:20.877Z,100668.43
2019-01-15T22:26:08.199Z,100672.48
2019-01-15T22:28:55.505Z,100668.69
2019-01-15T22:31:42.818Z,100672.26
2019-01-15T22:34:30.125Z,100678.74
2019-01-15T22:37:17.439Z,100679.23
2019-01-15T22:40:04.743Z,100677.03
2019-01-15T22:45:31.326Z,100684.73
2019-01-15T22:48:18.644Z,100678.63
2019-01-15T22:51:05.937Z,100683.59
2019-01-15T22:53:53.252Z,100689.02
2019-01-15T22:56:40.563Z,100683.52
2019-01-15T23:02:16.749Z,100679.78
2019-01-15T23:05:04.058Z,100688.61
2019-01-15T23:07:51.375Z,100685.63
2019-01-15T23:10:38.679Z,100686.52
2019-01-15T23:13:25.994Z,100685.70
2019-01-15T23:19:02.179Z,100685.78
2019-01-15T23:21:49.482Z,100673.45
2019-01-15T23:24:36.799Z,100675.98
2019-01-15T23:30:12.987Z,100687.81
2019-01-15T23:35:39.683Z,100676.88
2019-01-15T23:41:02.000Z,100681.15
2019-01-15T23:49:03.172Z,100674.75
2019-01-15T23:59:53.583Z,100677.02
